createdAt,value
2023-04-08T00:01:01.477Z,12.00
2023-04-08T00:03:29.368Z,14.20
2023-04-08T00:05:57.134Z,13.38
2023-04-08T00:08:26.223Z,13.85
2023-04-08T00:10:53.937Z,14.13
2023-04-08T00:13:21.684Z,14.82
2023-04-08T00:15:49.437Z,14.02
2023-04-08T00:18:18.513Z,12.45
2023-04-08T00:20:46.504Z,13.27
2023-04-08T00:23:14.194Z,12.85
2023-04-08T00:25:43.482Z,11.55
2023-04-08T00:28:11.176Z,12.93
2023-04-08T00:30:38.948Z,11.80
2023-04-08T00:33:06.994Z,11.88
2023-04-08T00:35:34.791Z,13.45
2023-04-08T00:38:03.372Z,12.20
2023-04-08T00:40:31.124Z,13.48
2023-04-08T00:43:00.432Z,12.98
2023-04-08T00:45:28.233Z,12.10
2023-04-08T00:47:56.392Z,12.85
2023-04-08T00:50:24.212Z,13.48
2023-04-08T00:52:51.908Z,12.05
2023-04-08T00:55:19.633Z,12.85
2023-04-08T00:57:47.688Z,11.40
2023-04-08T01:00:17.501Z,11.68
2023-04-08T01:02:52.609Z,11.88
2023-04-08T01:05:35.793Z,11.77
2023-04-08T01:08:08.014Z,12.35
2023-04-08T01:10:38.293Z,12.13
2023-04-08T01:13:10.217Z,13.40
2023-04-08T01:15:41.325Z,12.05
2023-04-08T01:18:13.515Z,11.23
2023-04-08T01:20:43.060Z,12.27
2023-04-08T01:23:19.100Z,12.45
2023-04-08T01:25:50.570Z,12.60
2023-04-08T01:28:21.089Z,12.82
2023-04-08T01:30:50.174Z,12.18
2023-04-08T01:33:19.321Z,12.82
2023-04-08T01:35:47.482Z,13.45
2023-04-08T01:38:18.385Z,11.77
2023-04-08T01:40:48.255Z,12.82
2023-04-08T01:43:18.202Z,13.63
2023-04-08T01:45:48.003Z,14.77
2023-04-08T01:48:16.448Z,13.00
2023-04-08T01:50:45.543Z,13.38
2023-04-08T01:53:13.718Z,13.65
2023-04-08T01:55:43.017Z,13.23
2023-04-08T01:58:20.223Z,13.00
2023-04-08T02:00:48.379Z,13.32
2023-04-08T02:03:19.678Z,14.13
2023-04-08T02:05:47.746Z,14.02
2023-04-08T02:08:15.443Z,13.85
2023-04-08T02:10:43.114Z,13.52
2023-04-08T02:13:12.211Z,13.80
2023-04-08T02:15:46.088Z,13.95
2023-04-08T02:18:17.383Z,14.55
2023-04-08T02:20:48.850Z,14.05
2023-04-08T02:23:22.247Z,14.23
2023-04-08T02:25:51.489Z,13.68
2023-04-08T02:28:21.499Z,14.27
2023-04-08T02:30:51.874Z,15.02
2023-04-08T02:33:22.079Z,14.00
2023-04-08T02:35:52.090Z,14.50
2023-04-08T02:38:20.248Z,14.75
2023-04-08T02:40:51.066Z,13.95
2023-04-08T02:43:20.260Z,13.70
2023-04-08T02:45:48.139Z,14.95
2023-04-08T02:48:15.848Z,13.52
2023-04-08T02:50:43.522Z,13.55
2023-04-08T02:53:11.259Z,14.93
2023-04-08T02:55:39.575Z,14.52
2023-04-08T02:58:07.289Z,15.43
2023-04-08T03:00:37.238Z,14.32
2023-04-08T03:03:05.092Z,16.05
2023-04-08T03:05:32.916Z,15.93
2023-04-08T03:08:00.703Z,15.63
2023-04-08T03:10:28.497Z,15.32
2023-04-08T03:12:56.189Z,15.48
2023-04-08T03:15:23.866Z,15.57
2023-04-08T03:17:52.979Z,15.82
2023-04-08T03:20:20.759Z,16.13
2023-04-08T03:22:48.556Z,15.65
2023-04-08T03:25:16.273Z,16.35
2023-04-08T03:27:43.933Z,15.13
2023-04-08T03:30:12.114Z,15.38
2023-04-08T03:32:40.061Z,15.75
2023-04-08T03:35:10.405Z,16.23
2023-04-08T03:37:38.082Z,16.75
2023-04-08T03:40:06.817Z,18.25
2023-04-08T03:42:35.110Z,16.02
2023-04-08T03:45:02.852Z,17.27
2023-04-08T03:47:30.580Z,16.25
2023-04-08T03:49:58.345Z,16.85
2023-04-08T03:52:27.394Z,17.25
2023-04-08T03:54:55.128Z,15.73
2023-04-08T03:57:22.856Z,15.40
2023-04-08T03:59:50.573Z,16.08
2023-04-08T04:02:18.488Z,16.65
2023-04-08T04:04:46.362Z,16.30
2023-04-08T04:07:14.151Z,16.63
2023-04-08T04:09:43.224Z,16.00
2023-04-08T04:12:10.866Z,16.50
2023-04-08T04:14:47.690Z,16.90
2023-04-08T04:17:15.404Z,16.75
2023-04-08T04:19:43.113Z,16.48
2023-04-08T04:22:10.841Z,16.75
2023-04-08T04:24:38.507Z,17.25
2023-04-08T04:27:07.537Z,17.60
2023-04-08T04:29:35.838Z,17.15
2023-04-08T04:32:03.491Z,16.20
2023-04-08T04:34:31.349Z,16.20
2023-04-08T04:36:59.017Z,17.13
2023-04-08T04:39:26.758Z,17.13
2023-04-08T04:41:54.440Z,16.73
2023-04-08T04:44:24.042Z,16.65
2023-04-08T04:46:51.806Z,16.77
2023-04-08T04:49:19.551Z,17.00
2023-04-08T04:51:47.222Z,17.20
2023-04-08T04:54:14.928Z,17.52
2023-04-08T04:59:36.076Z,16.30
2023-04-08T05:02:04.062Z,17.88
2023-04-08T05:04:31.845Z,17.42
2023-04-08T05:07:00.564Z,18.27
2023-04-08T05:09:28.300Z,17.35
2023-04-08T05:11:56.028Z,17.20
2023-04-08T05:14:23.786Z,17.30
2023-04-08T05:16:52.862Z,17.15
2023-04-08T05:19:20.576Z,17.38
2023-04-08T05:21:48.286Z,16.00
2023-04-08T05:24:16.134Z,17.42
2023-04-08T05:26:43.786Z,15.90
2023-04-08T05:29:11.469Z,17.55
2023-04-08T05:31:39.248Z,16.67
2023-04-08T05:34:08.358Z,16.48
2023-04-08T05:36:36.024Z,17.13
2023-04-08T05:39:03.736Z,16.63
2023-04-08T05:41:31.426Z,16.60
2023-04-08T05:43:59.160Z,16.75
2023-04-08T05:46:26.915Z,16.73
2023-04-08T05:48:54.609Z,17.05
2023-04-08T05:51:23.684Z,16.50
2023-04-08T05:53:51.407Z,15.55
2023-04-08T05:56:19.194Z,16.27
2023-04-08T05:58:47.194Z,15.80
2023-04-08T06:01:14.933Z,15.90
2023-04-08T06:03:42.698Z,15.98
2023-04-08T06:06:11.742Z,16.45
2023-04-08T06:08:41.119Z,15.55
2023-04-08T06:11:08.878Z,16.58
2023-04-08T06:13:37.266Z,15.95
2023-04-08T06:16:12.137Z,15.65
2023-04-08T06:18:40.357Z,15.13
2023-04-08T06:21:08.108Z,15.77
2023-04-08T06:23:35.947Z,15.52
2023-04-08T06:26:05.711Z,17.17
2023-04-08T06:28:33.711Z,16.42
2023-04-08T06:31:01.425Z,15.55
2023-04-08T06:33:29.175Z,16.20
2023-04-08T06:36:03.739Z,17.17
2023-04-08T06:38:31.975Z,16.95
2023-04-08T06:41:04.920Z,16.77
2023-04-08T06:43:32.955Z,17.85
2023-04-08T06:46:00.622Z,16.63
2023-04-08T06:48:30.424Z,17.38
2023-04-08T06:50:58.807Z,17.92
2023-04-08T06:53:27.930Z,16.95
2023-04-08T06:55:55.782Z,16.13
2023-04-08T06:58:24.818Z,16.67
2023-04-08T07:00:52.557Z,16.92
2023-04-08T07:03:20.342Z,18.33
2023-04-08T07:05:48.666Z,18.38
2023-04-08T07:08:16.472Z,19.77
2023-04-08T07:10:44.898Z,20.60
2023-04-08T07:13:13.198Z,19.65
2023-04-08T07:15:42.440Z,21.08
2023-04-08T07:18:10.646Z,21.10
2023-04-08T07:20:38.418Z,21.75
2023-04-08T07:23:06.241Z,23.50
2023-04-08T07:25:34.391Z,23.35
2023-04-08T07:28:02.215Z,21.90
2023-04-08T07:30:30.032Z,21.55
2023-04-08T07:33:00.751Z,21.60
2023-04-08T07:35:29.086Z,21.95
2023-04-08T07:37:57.636Z,22.50
2023-04-08T07:40:25.366Z,22.15
2023-04-08T07:42:53.164Z,21.77
2023-04-08T07:45:21.354Z,22.75
2023-04-08T07:47:49.073Z,21.67
2023-04-08T07:50:18.690Z,21.10
2023-04-08T07:52:46.374Z,19.27
2023-04-08T07:55:17.838Z,19.70
2023-04-08T07:57:46.117Z,17.70
2023-04-08T08:00:20.824Z,18.90
2023-04-08T08:02:49.190Z,18.48
2023-04-08T08:05:18.496Z,18.92
2023-04-08T08:07:46.308Z,18.58
2023-04-08T08:10:14.009Z,17.48
2023-04-08T08:12:41.862Z,18.05
2023-04-08T08:15:10.941Z,17.75
2023-04-08T08:17:38.669Z,16.75
2023-04-08T08:20:07.964Z,15.48
2023-04-08T08:22:47.143Z,16.83
2023-04-08T08:25:26.172Z,16.27
2023-04-08T08:27:55.370Z,15.82
2023-04-08T08:30:23.085Z,16.13
2023-04-08T08:32:52.152Z,16.90
2023-04-08T08:35:19.908Z,15.73
2023-04-08T08:37:49.054Z,17.77
2023-04-08T08:40:16.997Z,18.10
2023-04-08T08:42:52.287Z,19.05
2023-04-08T08:45:20.504Z,18.83
2023-04-08T08:47:51.209Z,17.98
2023-04-08T08:50:19.596Z,19.38
2023-04-08T08:52:52.681Z,19.58
2023-04-08T08:55:39.495Z,18.73
2023-04-08T08:58:21.501Z,19.15
2023-04-08T09:00:49.179Z,18.15
2023-04-08T09:03:19.075Z,19.05
2023-04-08T09:05:52.065Z,19.40
2023-04-08T09:08:29.261Z,18.35
2023-04-08T09:10:58.044Z,18.52
2023-04-08T09:13:26.239Z,19.58
2023-04-08T09:16:05.085Z,20.13
2023-04-08T09:18:33.727Z,19.70
2023-04-08T09:21:02.395Z,19.63
2023-04-08T09:23:42.469Z,19.95
2023-04-08T09:26:11.500Z,22.23
2023-04-08T09:28:40.004Z,20.92
2023-04-08T09:31:23.612Z,19.85
2023-04-08T09:33:52.559Z,20.58
2023-04-08T09:36:20.898Z,19.90
2023-04-08T09:38:50.022Z,19.33
2023-04-08T09:41:18.857Z,19.48
2023-04-08T09:43:50.456Z,19.38
2023-04-08T09:46:20.541Z,21.92
2023-04-08T09:48:52.330Z,19.17
2023-04-08T09:51:23.654Z,19.02
2023-04-08T09:54:00.600Z,18.75
2023-04-08T09:56:37.336Z,18.58
2023-04-08T09:59:12.854Z,18.98
2023-04-08T10:01:46.026Z,19.02
2023-04-08T10:04:18.435Z,18.88
2023-04-08T10:06:51.499Z,18.02
2023-04-08T10:09:21.349Z,17.92
2023-04-08T10:11:56.478Z,18.75
2023-04-08T10:14:27.051Z,19.20
2023-04-08T10:17:26.177Z,18.20
2023-04-08T10:19:54.226Z,18.23
2023-04-08T10:22:47.927Z,18.98
2023-04-08T10:25:33.661Z,18.33
2023-04-08T10:28:01.721Z,17.98
2023-04-08T10:30:43.277Z,19.05
2023-04-08T10:33:13.281Z,19.08
2023-04-08T10:35:46.049Z,18.90
2023-04-08T10:38:14.372Z,18.48
2023-04-08T10:40:44.560Z,19.20
2023-04-08T10:43:18.558Z,19.13
2023-04-08T10:45:51.151Z,19.33
2023-04-08T10:48:20.681Z,18.67
2023-04-08T10:50:55.118Z,18.67
2023-04-08T10:53:27.176Z,20.35
2023-04-08T10:55:56.424Z,18.67
2023-04-08T10:58:24.180Z,19.30
2023-04-08T11:00:51.879Z,19.30
2023-04-08T11:03:20.665Z,19.40
2023-04-08T11:05:51.604Z,19.70
2023-04-08T11:08:20.963Z,19.23
2023-04-08T11:10:49.556Z,20.23
2023-04-08T11:13:18.756Z,19.65
2023-04-08T11:15:46.786Z,19.73
2023-04-08T11:18:14.758Z,20.08
2023-04-08T11:20:44.843Z,21.55
2023-04-08T11:23:14.693Z,21.48
2023-04-08T11:25:43.106Z,20.17
2023-04-08T11:28:11.284Z,20.70
2023-04-08T11:30:42.026Z,21.90
2023-04-08T11:33:10.174Z,27.83
2023-04-08T11:35:51.049Z,23.35
2023-04-08T11:38:24.229Z,25.17
2023-04-08T11:40:55.284Z,37.95
2023-04-08T11:43:23.402Z,32.33
2023-04-08T11:45:52.901Z,34.97
2023-04-08T11:48:20.647Z,26.60
2023-04-08T11:50:48.477Z,22.95
2023-04-08T11:53:20.674Z,23.80
2023-04-08T11:55:49.463Z,24.38
2023-04-08T11:58:17.518Z,23.05
2023-04-08T12:00:45.694Z,27.65
2023-04-08T12:03:14.917Z,33.65
2023-04-08T12:05:43.189Z,32.58
2023-04-08T12:08:10.963Z,23.60
2023-04-08T12:10:38.924Z,23.88
2023-04-08T12:13:06.785Z,50.47
2023-04-08T12:15:34.441Z,23.20
2023-04-08T12:18:02.165Z,42.67
2023-04-08T12:20:31.322Z,23.73
2023-04-08T12:22:59.005Z,25.95
2023-04-08T12:25:27.662Z,24.60
2023-04-08T12:27:55.314Z,23.63
2023-04-08T12:30:22.980Z,22.88
2023-04-08T12:32:50.761Z,21.55
2023-04-08T12:35:18.513Z,22.98
2023-04-08T12:37:47.582Z,23.60
2023-04-08T12:40:16.215Z,24.50
2023-04-08T12:42:43.899Z,28.88
2023-04-08T12:45:11.803Z,24.23
2023-04-08T12:47:39.513Z,22.15
2023-04-08T12:50:09.814Z,20.60
2023-04-08T12:52:37.579Z,20.45
2023-04-08T12:55:07.989Z,21.15
2023-04-08T12:57:35.741Z,20.98
2023-04-08T13:00:04.214Z,20.20
2023-04-08T13:02:32.072Z,21.13
2023-04-08T13:04:59.894Z,20.35
2023-04-08T13:07:27.545Z,19.58
2023-04-08T13:09:55.296Z,20.48
2023-04-08T13:12:24.377Z,17.05
2023-04-08T13:14:52.048Z,18.38
2023-04-08T13:17:19.765Z,18.65
2023-04-08T13:19:47.911Z,18.55
2023-04-08T13:22:15.578Z,17.75
2023-04-08T13:24:43.402Z,18.55
2023-04-08T13:27:11.053Z,18.15
2023-04-08T13:29:40.106Z,18.38
2023-04-08T13:32:08.213Z,18.25
2023-04-08T13:34:35.987Z,19.38
2023-04-08T13:37:04.283Z,19.40
2023-04-08T13:39:32.111Z,19.45
2023-04-08T13:41:59.929Z,20.60
2023-04-08T13:44:27.712Z,19.23
2023-04-08T13:46:56.776Z,18.27
2023-04-08T13:49:24.508Z,17.20
2023-04-08T13:51:52.147Z,18.88
2023-04-08T13:54:19.881Z,18.90
2023-04-08T13:56:47.558Z,19.17
2023-04-08T13:59:15.377Z,19.10
2023-04-08T14:01:43.188Z,18.85
2023-04-08T14:04:12.416Z,17.80
2023-04-08T14:06:40.099Z,17.80
2023-04-08T14:09:07.811Z,17.00
2023-04-08T14:11:36.409Z,16.75
2023-04-08T14:14:05.977Z,16.13
2023-04-08T14:16:35.617Z,17.48
2023-04-08T14:19:03.393Z,17.52
2023-04-08T14:21:32.922Z,16.48
2023-04-08T14:24:02.516Z,17.25
2023-04-08T14:26:31.053Z,16.73
2023-04-08T14:28:58.759Z,16.95
2023-04-08T14:31:26.530Z,16.67
2023-04-08T14:33:54.236Z,16.27
2023-04-08T14:36:24.248Z,16.58
2023-04-08T14:38:53.734Z,17.13
2023-04-08T14:41:21.827Z,16.50
2023-04-08T14:43:50.009Z,16.40
2023-04-08T14:46:17.764Z,17.73
2023-04-08T14:48:45.437Z,15.95
2023-04-08T14:51:13.481Z,16.73
2023-04-08T14:53:41.197Z,15.43
2023-04-08T14:56:10.498Z,19.05
2023-04-08T14:58:38.249Z,61.05
2023-04-08T15:01:06.098Z,26.35
2023-04-08T15:03:33.919Z,31.67
2023-04-08T15:06:01.910Z,52.13
2023-04-08T15:08:29.669Z,49.35
2023-04-08T15:10:57.732Z,20.52
2023-04-08T15:13:26.750Z,17.98
2023-04-08T15:15:54.488Z,16.08
2023-04-08T15:18:22.159Z,16.58
2023-04-08T15:20:49.841Z,17.27
2023-04-08T15:23:17.982Z,16.35
2023-04-08T15:25:46.345Z,17.50
2023-04-08T15:28:13.984Z,19.08
2023-04-08T15:30:44.475Z,17.58
2023-04-08T15:33:12.254Z,19.25
2023-04-08T15:35:40.055Z,19.13
2023-04-08T15:38:07.825Z,18.75
2023-04-08T15:40:35.507Z,18.33
2023-04-08T15:43:03.844Z,18.15
2023-04-08T15:45:31.795Z,18.13
2023-04-08T15:48:00.873Z,18.98
2023-04-08T15:50:29.890Z,20.27
2023-04-08T15:52:57.927Z,18.63
2023-04-08T15:55:25.652Z,18.40
2023-04-08T15:57:56.457Z,20.48
2023-04-08T16:00:24.763Z,19.35
2023-04-08T16:02:52.772Z,19.48
2023-04-08T16:05:22.170Z,19.52
2023-04-08T16:07:50.097Z,20.20
2023-04-08T16:10:17.936Z,20.02
2023-04-08T16:12:46.260Z,20.65
2023-04-08T16:15:14.020Z,21.77
2023-04-08T16:17:41.745Z,20.35
2023-04-08T16:20:10.638Z,21.63
2023-04-08T16:22:39.754Z,21.63
2023-04-08T16:25:08.230Z,20.33
2023-04-08T16:27:36.988Z,22.55
2023-04-08T16:30:05.585Z,23.65
2023-04-08T16:32:33.289Z,23.98
2023-04-08T16:35:01.265Z,24.33
2023-04-08T16:37:29.048Z,24.75
2023-04-08T16:39:58.142Z,24.13
2023-04-08T16:42:26.050Z,23.77
2023-04-08T16:44:57.137Z,25.23
2023-04-08T16:47:25.078Z,26.02
2023-04-08T16:49:53.038Z,26.63
2023-04-08T16:52:21.071Z,27.40
2023-04-08T16:54:48.824Z,28.42
2023-04-08T16:57:18.141Z,25.17
2023-04-08T16:59:45.926Z,26.33
2023-04-08T17:02:13.676Z,26.08
2023-04-08T17:04:41.834Z,24.02
2023-04-08T17:07:09.606Z,24.58
2023-04-08T17:09:37.564Z,24.58
2023-04-08T17:12:05.549Z,24.65
2023-04-08T17:14:36.050Z,24.63
2023-04-08T17:17:03.722Z,25.10
2023-04-08T17:19:31.396Z,24.63
2023-04-08T17:21:59.069Z,24.40
2023-04-08T17:24:26.838Z,25.08
2023-04-08T17:26:56.754Z,23.38
2023-04-08T17:29:24.518Z,25.33
2023-04-08T17:31:53.575Z,24.33
2023-04-08T17:34:21.248Z,25.05
2023-04-08T17:36:48.902Z,25.80
2023-04-08T17:39:16.587Z,26.80
2023-04-08T17:41:45.816Z,23.75
2023-04-08T17:44:13.927Z,25.58
2023-04-08T17:46:41.938Z,25.65
2023-04-08T17:49:12.865Z,26.45
2023-04-08T17:51:40.942Z,27.52
2023-04-08T17:54:08.697Z,27.55
2023-04-08T17:56:36.375Z,26.85
2023-04-08T17:59:04.194Z,28.02
2023-04-08T18:01:31.932Z,26.15
2023-04-08T18:03:59.845Z,26.58
2023-04-08T18:06:28.999Z,27.05
2023-04-08T18:08:56.678Z,26.17
2023-04-08T18:11:26.536Z,25.90
2023-04-08T18:13:54.577Z,25.60
2023-04-08T18:16:23.213Z,24.45
2023-04-08T18:18:51.398Z,24.17
2023-04-08T18:21:19.227Z,23.17
2023-04-08T18:23:48.357Z,21.65
2023-04-08T18:26:16.110Z,20.90
2023-04-08T18:28:43.785Z,21.30
2023-04-08T18:31:11.678Z,21.23
2023-04-08T18:33:39.693Z,22.08
2023-04-08T18:36:08.897Z,21.52
2023-04-08T18:38:37.126Z,22.17
2023-04-08T18:41:06.525Z,22.40
2023-04-08T18:43:34.806Z,22.38
2023-04-08T18:46:02.663Z,21.13
2023-04-08T18:48:30.387Z,22.50
2023-04-08T18:50:58.643Z,22.20
2023-04-08T18:53:26.480Z,21.98
2023-04-08T18:55:54.929Z,24.13
2023-04-08T18:58:24.038Z,24.23
2023-04-08T19:00:51.837Z,26.10
2023-04-08T19:03:19.634Z,28.33
2023-04-08T19:05:47.596Z,29.02
2023-04-08T19:08:15.380Z,28.35
2023-04-08T19:10:43.105Z,29.20
2023-04-08T19:13:10.772Z,29.30
2023-04-08T19:15:39.900Z,31.05
2023-04-08T19:18:07.727Z,30.38
2023-04-08T19:20:35.444Z,30.70
2023-04-08T19:23:03.489Z,29.35
2023-04-08T19:25:31.865Z,43.90
2023-04-08T19:27:59.534Z,25.77
2023-04-08T19:30:27.309Z,25.17
2023-04-08T19:32:56.438Z,23.70
2023-04-08T19:35:24.228Z,28.38
2023-04-08T19:37:52.153Z,23.48
2023-04-08T19:40:20.560Z,57.22
2023-04-08T19:42:48.310Z,59.38
2023-04-08T19:45:16.128Z,23.83
2023-04-08T19:47:44.874Z,23.70
2023-04-08T19:50:15.519Z,23.85
2023-04-08T19:52:43.206Z,23.73
2023-04-08T19:55:11.270Z,21.70
2023-04-08T19:57:39.226Z,23.02
2023-04-08T20:00:08.357Z,24.27
2023-04-08T20:02:36.297Z,23.42
2023-04-08T20:05:04.259Z,23.05
2023-04-08T20:07:33.482Z,24.42
2023-04-08T20:10:01.267Z,23.52
2023-04-08T20:12:30.226Z,24.10
2023-04-08T20:14:57.933Z,23.77
2023-04-08T20:17:26.435Z,25.98
2023-04-08T20:19:54.227Z,26.50
2023-04-08T20:22:22.305Z,25.38
2023-04-08T20:24:51.567Z,25.85
2023-04-08T20:27:19.860Z,26.52
2023-04-08T20:29:47.695Z,27.48
2023-04-08T20:32:15.504Z,26.55
2023-04-08T20:34:43.369Z,26.52
2023-04-08T20:37:11.779Z,27.25
2023-04-08T20:39:39.617Z,27.42
2023-04-08T20:42:09.471Z,26.83
2023-04-08T20:44:37.357Z,26.88
2023-04-08T20:47:05.335Z,26.73
2023-04-08T20:49:34.690Z,25.42
2023-04-08T20:52:02.537Z,25.10
2023-04-08T20:54:31.682Z,26.88
2023-04-08T20:56:59.668Z,24.20
2023-04-08T20:59:28.955Z,24.52
2023-04-08T21:01:56.818Z,25.13
2023-04-08T21:04:24.685Z,26.08
2023-04-08T21:06:52.464Z,23.17
2023-04-08T21:09:20.224Z,21.05
2023-04-08T21:11:47.989Z,19.70
2023-04-08T21:14:15.786Z,18.23
2023-04-08T21:16:45.015Z,19.13
2023-04-08T21:19:12.843Z,18.75
2023-04-08T21:21:41.038Z,19.52
2023-04-08T21:24:09.877Z,19.67
2023-04-08T21:26:37.717Z,18.95
2023-04-08T21:29:05.462Z,18.85
2023-04-08T21:31:33.296Z,17.50
2023-04-08T21:34:02.462Z,18.55
2023-04-08T21:36:31.385Z,18.83
2023-04-08T21:38:59.112Z,18.80
2023-04-08T21:41:28.417Z,17.73
2023-04-08T21:43:58.258Z,15.68
2023-04-08T21:46:26.233Z,16.60
2023-04-08T21:48:54.163Z,16.45
2023-04-08T21:51:23.449Z,16.60
2023-04-08T21:53:51.931Z,16.00
2023-04-08T21:56:19.955Z,15.85
2023-04-08T21:58:47.719Z,17.33
2023-04-08T22:01:15.712Z,18.15
2023-04-08T22:03:43.936Z,18.83
2023-04-08T22:06:16.707Z,17.80
2023-04-08T22:08:54.785Z,17.48
2023-04-08T22:11:22.833Z,18.27
2023-04-08T22:13:50.587Z,17.58
2023-04-08T22:16:18.628Z,18.17
2023-04-08T22:18:46.524Z,17.42
2023-04-08T22:21:14.876Z,17.25
2023-04-08T22:23:42.828Z,18.13
2023-04-08T22:26:13.013Z,18.08
2023-04-08T22:28:41.346Z,17.65
2023-04-08T22:31:10.412Z,17.10
2023-04-08T22:33:38.633Z,17.58
2023-04-08T22:36:06.963Z,18.58
2023-04-08T22:38:34.705Z,18.15
2023-04-08T22:41:02.587Z,17.73
2023-04-08T22:43:31.755Z,19.30
2023-04-08T22:45:59.573Z,21.25
2023-04-08T22:48:27.283Z,21.02
2023-04-08T22:50:55.072Z,21.05
2023-04-08T23:01:47.799Z,18.30
2023-04-08T23:04:15.818Z,18.33
2023-04-08T23:06:43.529Z,20.20
2023-04-08T23:09:11.209Z,19.65
2023-04-08T23:11:38.933Z,19.75
2023-04-08T23:14:06.637Z,19.77
2023-04-08T23:16:35.770Z,19.85
2023-04-08T23:19:03.475Z,19.58
2023-04-08T23:21:31.184Z,19.85
2023-04-08T23:23:58.872Z,19.08
2023-04-08T23:26:26.648Z,20.13
2023-04-08T23:28:54.507Z,18.95
2023-04-08T23:31:22.286Z,18.92
2023-04-08T23:33:51.398Z,18.30
2023-04-08T23:36:19.153Z,18.95
2023-04-08T23:38:46.796Z,18.10
2023-04-08T23:41:14.480Z,19.35
2023-04-08T23:43:42.187Z,19.58
2023-04-08T23:46:09.955Z,19.40
2023-04-08T23:48:37.687Z,19.75
2023-04-08T23:51:07.112Z,19.48
2023-04-08T23:53:34.756Z,19.48
2023-04-08T23:56:06.697Z,18.48
2023-04-08T23:58:34.479Z,19.30
